Time;durP1;ratioP1;P1;durP2;ratioP2;P2;SDS_P1;SDS_P2;PMS_P1;PMS_P2;Temp;Humidity;BMP_temperature;BMP_pressure;BME280_temperature;BME280_humidity;BME280_pressure;Samples;Min_cycle;Max_cycle;Signal;HPM_P1;HPM_P2
2022/06/21 00:00:18;;;;;;;;;;;;;;;13.65;96.49;100636.69;5197276;28;19912;-76
2022/06/21 00:02:49;;;;;;;;;;;;;;;13.66;96.07;100645.41;5201254;28;19917;-76
2022/06/21 00:05:24;;;;;;;;;;;;;;;13.69;95.61;100647.91;5201156;28;19924;-76
2022/06/21 00:07:56;;;;;;;;;;;;;;;13.67;96.53;100644.50;5199857;28;20067;-76
2022/06/21 00:10:26;;;;;;;;;;;;;;;13.64;95.99;100637.63;5196449;28;19940;-76
2022/06/21 00:12:56;;;;;;;;;;;;;;;13.48;96.51;100651.53;5198020;28;19913;-76
2022/06/21 00:15:26;;;;;;;;;;;;;;;13.60;96.18;100650.97;5201067;28;20421;-76
2022/06/21 00:17:57;;;;;;;;;;;;;;;13.59;96.44;100647.47;5200450;28;19917;-76
2022/06/21 00:20:27;;;;;;;;;;;;;;;13.44;97.83;100658.69;5200334;28;19913;-76
2022/06/21 00:22:57;;;;;;;;;;;;;;;13.48;97.29;100659.41;5197785;28;19928;-76
2022/06/21 00:25:27;;;;;;;;;;;;;;;13.49;97.28;100663.72;5200127;28;19988;-76
2022/06/21 00:27:58;;;;;;;;;;;;;;;13.19;98.23;100667.72;5180120;28;19917;-76
2022/06/21 00:30:29;;;;;;;;;;;;;;;13.19;99.33;100675.59;5187332;28;20296;-76
2022/06/21 00:32:59;;;;;;;;;;;;;;;13.16;99.60;100674.00;5185896;28;19910;-75
2022/06/21 00:35:29;;;;;;;;;;;;;;;13.15;99.39;100676.66;5190848;28;20016;-76
2022/06/21 00:37:59;;;;;;;;;;;;;;;12.98;100.00;100679.19;5202064;28;19921;-76
2022/06/21 00:40:30;;;;;;;;;;;;;;;13.21;98.66;100671.16;5204408;28;19920;-76
2022/06/21 00:43:09;;;;;;;;;;;;;;;13.12;98.28;100666.31;5204353;28;20047;-76
2022/06/21 00:45:42;;;;;;;;;;;;;;;13.10;98.26;100666.38;5204662;28;19913;-76
2022/06/21 00:48:16;;;;;;;;;;;;;;;13.04;99.54;100673.69;5200028;28;19920;-76
2022/06/21 00:50:48;;;;;;;;;;;;;;;13.06;99.35;100672.69;5204573;28;19920;-76
2022/06/21 00:53:25;;;;;;;;;;;;;;;12.88;100.00;100670.00;5201184;28;19916;-76
2022/06/21 00:56:10;;;;;;;;;;;;;;;13.02;100.00;100665.88;5204193;28;20085;-76
2022/06/21 00:58:41;;;;;;;;;;;;;;;12.89;100.00;100669.06;5173966;28;19919;-76
2022/06/21 01:01:17;;;;;;;;;;;;;;;12.79;100.00;100667.75;5204310;28;19920;-75
2022/06/21 01:03:57;;;;;;;;;;;;;;;12.89;100.00;100666.44;5186283;28;19921;-76
2022/06/21 01:06:33;;;;;;;;;;;;;;;12.75;100.00;100676.69;5203964;28;20508;-75
2022/06/21 01:09:06;;;;;;;;;;;;;;;12.85;100.00;100664.84;5203780;28;20016;-76
2022/06/21 01:11:41;;;;;;;;;;;;;;;12.89;100.00;100671.69;5204135;28;20339;-76
2022/06/21 01:14:13;;;;;;;;;;;;;;;12.69;100.00;100663.84;5199782;28;20015;-75
2022/06/21 01:16:44;;;;;;;;;;;;;;;12.57;100.00;100666.97;5203374;28;20000;-76
2022/06/21 01:19:16;;;;;;;;;;;;;;;12.60;100.00;100661.59;5203990;28;20091;-76
2022/06/21 01:21:48;;;;;;;;;;;;;;;12.63;100.00;100658.84;5203613;28;19924;-76
2022/06/21 01:24:28;;;;;;;;;;;;;;;12.54;100.00;100661.88;5200762;28;19913;-76
2022/06/21 01:27:00;;;;;;;;;;;;;;;12.50;100.00;100669.91;5203751;28;20023;-75
2022/06/21 01:29:31;;;;;;;;;;;;;;;12.46;100.00;100666.56;5200136;28;19927;-75
2022/06/21 01:32:03;;;;;;;;;;;;;;;12.47;100.00;100670.03;5203180;28;19955;-76
2022/06/21 01:34:34;;;;;;;;;;;;;;;12.48;100.00;100671.75;5203787;28;19924;-76
2022/06/21 01:37:06;;;;;;;;;;;;;;;12.49;100.00;100671.66;5203327;28;20290;-76
2022/06/21 01:39:40;;;;;;;;;;;;;;;12.19;100.00;100678.19;5203171;28;19963;-76
2022/06/21 01:42:16;;;;;;;;;;;;;;;12.22;100.00;100680.69;5199392;28;19917;-76
2022/06/21 01:44:50;;;;;;;;;;;;;;;12.36;100.00;100682.72;5203741;28;19913;-76
2022/06/21 01:47:26;;;;;;;;;;;;;;;12.26;100.00;100687.50;5202758;28;20350;-76
2022/06/21 01:50:00;;;;;;;;;;;;;;;12.26;100.00;100684.03;5203323;28;19983;-76
2022/06/21 01:52:34;;;;;;;;;;;;;;;11.96;100.00;100686.09;5200138;28;20068;-76
2022/06/21 01:55:06;;;;;;;;;;;;;;;11.99;100.00;100683.34;5202896;28;20467;-76
2022/06/21 01:57:38;;;;;;;;;;;;;;;11.75;100.00;100686.09;5202284;28;20464;-76
2022/06/21 02:00:08;;;;;;;;;;;;;;;11.54;100.00;100684.25;5199441;28;19924;-76
2022/06/21 02:02:42;;;;;;;;;;;;;;;11.48;100.00;100687.94;5202894;28;19923;-76
2022/06/21 02:05:16;;;;;;;;;;;;;;;11.21;100.00;100686.34;5199366;28;20008;-76
2022/06/21 02:07:49;;;;;;;;;;;;;;;11.20;100.00;100694.25;5201515;28;19914;-76
2022/06/21 02:10:26;;;;;;;;;;;;;;;11.12;100.00;100685.84;5202810;28;20337;-76
2022/06/21 02:13:02;;;;;;;;;;;;;;;11.39;100.00;100687.41;5203188;28;19913;-76
2022/06/21 02:15:41;;;;;;;;;;;;;;;11.33;100.00;100685.03;5203093;28;19917;-75
2022/06/21 02:18:12;;;;;;;;;;;;;;;11.30;100.00;100680.75;5180206;28;19917;-76
2022/06/21 02:20:59;;;;;;;;;;;;;;;10.97;100.00;100693.34;5203172;28;19913;-75
2022/06/21 02:23:29;;;;;;;;;;;;;;;11.20;100.00;100692.50;5202230;28;20206;-76
2022/06/21 02:25:59;;;;;;;;;;;;;;;11.13;100.00;100690.16;5202871;28;19920;-76
2022/06/21 02:28:30;;;;;;;;;;;;;;;11.13;100.00;100693.59;5180303;28;19927;-75
2022/06/21 02:31:00;;;;;;;;;;;;;;;10.78;100.00;100703.63;5202166;28;20299;-76
2022/06/21 02:33:33;;;;;;;;;;;;;;;10.67;100.00;100694.44;5202485;28;19913;-76
2022/06/21 02:36:14;;;;;;;;;;;;;;;10.78;100.00;100689.66;5202296;28;19917;-76
2022/06/21 02:38:49;;;;;;;;;;;;;;;10.88;100.00;100693.69;5195898;28;19913;-76
2022/06/21 02:41:22;;;;;;;;;;;;;;;11.01;100.00;100674.88;5202041;28;20397;-76
2022/06/21 02:43:56;;;;;;;;;;;;;;;10.95;100.00;100693.44;5202229;28;20019;-76
2022/06/21 02:46:29;;;;;;;;;;;;;;;10.95;100.00;100693.44;5202028;28;19978;-75
2022/06/21 02:49:02;;;;;;;;;;;;;;;10.69;100.00;100685.63;5202325;28;20130;-76
2022/06/21 02:51:36;;;;;;;;;;;;;;;10.70;100.00;100686.47;5183878;28;19916;-76
2022/06/21 02:54:07;;;;;;;;;;;;;;;10.84;100.00;100690.31;5173606;28;19972;-76
2022/06/21 02:56:45;;;;;;;;;;;;;;;11.13;100.00;100690.16;5197947;28;20394;-76
2022/06/21 02:59:16;;;;;;;;;;;;;;;11.11;100.00;100684.97;5191971;28;20160;-75
2022/06/21 03:01:49;;;;;;;;;;;;;;;11.09;100.00;100685.94;5201659;28;19935;-76
2022/06/21 03:04:21;;;;;;;;;;;;;;;11.24;100.00;100673.16;5202295;28;19912;-76
2022/06/21 03:06:52;;;;;;;;;;;;;;;11.06;100.00;100681.66;5201306;28;20019;-76
2022/06/21 03:09:23;;;;;;;;;;;;;;;10.98;100.00;100687.22;5201742;28;20019;-76
2022/06/21 03:11:57;;;;;;;;;;;;;;;11.02;100.00;100689.66;5201267;28;20355;-76
2022/06/21 03:14:29;;;;;;;;;;;;;;;11.12;100.00;100689.28;5183694;28;19919;-76
2022/06/21 03:17:00;;;;;;;;;;;;;;;11.13;100.00;100677.91;5200928;28;19912;-76
2022/06/21 03:19:35;;;;;;;;;;;;;;;11.30;100.00;100683.38;5201476;28;19952;-76
2022/06/21 03:22:17;;;;;;;;;;;;;;;11.32;100.00;100678.97;5199745;28;20012;-76
2022/06/21 03:24:49;;;;;;;;;;;;;;;11.40;100.00;100674.28;5198393;28;20409;-76
2022/06/21 03:27:27;;;;;;;;;;;;;;;11.63;100.00;100668.22;5200977;28;19917;-76
2022/06/21 03:29:57;;;;;;;;;;;;;;;11.47;100.00;100661.84;5179843;28;19913;-76
2022/06/21 03:32:29;;;;;;;;;;;;;;;10.82;100.00;100676.44;5201241;28;19924;-76
2022/06/21 03:35:00;;;;;;;;;;;;;;;10.78;100.00;100672.25;5200857;28;19917;-76
2022/06/21 03:37:30;;;;;;;;;;;;;;;10.85;100.00;100678.94;5201050;28;19916;-75
2022/06/21 03:42:52;;;;;;;;;;;;;;;11.05;100.00;100666.88;5201811;28;20381;-76
2022/06/21 03:45:25;;;;;;;;;;;;;;;11.26;100.00;100671.34;5201227;28;19925;-76
2022/06/21 03:47:59;;;;;;;;;;;;;;;11.37;100.00;100671.81;5200814;28;19933;-76
2022/06/21 03:50:33;;;;;;;;;;;;;;;11.50;100.00;100664.34;5200692;28;20035;-75
2022/06/21 03:53:10;;;;;;;;;;;;;;;11.41;100.00;100662.91;5195138;28;19917;-76
2022/06/21 03:55:46;;;;;;;;;;;;;;;11.72;100.00;100673.09;5200046;28;19917;-76
2022/06/21 03:58:28;;;;;;;;;;;;;;;11.75;100.00;100662.53;5178544;28;19913;-76
2022/06/21 04:01:05;;;;;;;;;;;;;;;11.60;100.00;100669.19;5191982;28;19959;-76
2022/06/21 04:03:40;;;;;;;;;;;;;;;11.27;100.00;100667.81;5201025;28;19917;-76
2022/06/21 04:06:10;;;;;;;;;;;;;;;11.24;100.00;100670.53;5195939;28;19913;-75
2022/06/21 04:08:46;;;;;;;;;;;;;;;11.68;100.00;100669.78;5200416;28;19920;-76
2022/06/21 04:11:20;;;;;;;;;;;;;;;12.00;100.00;100666.75;5199482;28;19913;-76
2022/06/21 04:13:56;;;;;;;;;;;;;;;11.92;100.00;100666.19;5201022;28;19913;-76
2022/06/21 04:16:43;;;;;;;;;;;;;;;11.78;100.00;100660.63;5200551;28;19913;-76
2022/06/21 04:19:17;;;;;;;;;;;;;;;12.09;100.00;100663.75;5196913;28;20020;-76
2022/06/21 04:21:53;;;;;;;;;;;;;;;12.40;100.00;100658.09;5200939;28;20449;-76
2022/06/21 04:24:33;;;;;;;;;;;;;;;12.60;100.00;100669.47;5187840;28;20353;-76
2022/06/21 04:27:09;;;;;;;;;;;;;;;12.50;100.00;100676.00;5181279;28;19916;-76
2022/06/21 04:29:47;;;;;;;;;;;;;;;12.77;100.00;100674.00;5190444;28;19913;-76
2022/06/21 04:32:27;;;;;;;;;;;;;;;13.16;100.00;100667.88;5190866;28;19919;-76
2022/06/21 04:35:02;;;;;;;;;;;;;;;13.15;100.00;100672.28;5200606;28;19919;-76
2022/06/21 04:37:46;;;;;;;;;;;;;;;13.67;100.00;100678.63;5199870;28;19925;-76
2022/06/21 04:40:20;;;;;;;;;;;;;;;13.95;100.00;100684.31;5194151;28;20457;-76
2022/06/21 04:42:53;;;;;;;;;;;;;;;14.25;97.50;100688.13;5200340;28;19924;-76
2022/06/21 04:45:43;;;;;;;;;;;;;;;15.27;93.98;100679.28;5199618;28;19917;-76
2022/06/21 04:48:21;;;;;;;;;;;;;;;15.78;89.97;100683.53;5192257;28;19917;-76
2022/06/21 04:50:56;;;;;;;;;;;;;;;18.27;78.93;100677.09;5200280;28;19913;-76
2022/06/21 04:53:45;;;;;;;;;;;;;;;19.17;73.91;100675.34;5175066;28;19913;-77
2022/06/21 04:56:27;;;;;;;;;;;;;;;19.67;72.83;100677.94;5189743;28;19924;-76
2022/06/21 04:58:58;;;;;;;;;;;;;;;19.26;73.13;100679.97;5192772;28;20197;-76
2022/06/21 05:01:32;;;;;;;;;;;;;;;19.93;70.93;100665.47;5191998;28;19912;-76
2022/06/21 05:04:06;;;;;;;;;;;;;;;21.39;67.27;100670.13;5200087;28;19920;-76
2022/06/21 05:06:37;;;;;;;;;;;;;;;22.14;66.04;100668.50;5199614;28;19960;-76
2022/06/21 05:09:12;;;;;;;;;;;;;;;22.02;65.25;100664.16;5199996;28;20008;-76
2022/06/21 05:11:42;;;;;;;;;;;;;;;23.00;63.77;100650.44;5196467;28;19913;-76
2022/06/21 05:14:21;;;;;;;;;;;;;;;23.61;61.55;100648.69;5199998;28;19923;-77
2022/06/21 05:16:52;;;;;;;;;;;;;;;21.74;64.18;100654.91;5198355;28;20007;-73
2022/06/21 05:19:31;;;;;;;;;;;;;;;22.45;61.87;100652.56;5186079;28;20000;-77
2022/06/21 05:22:13;;;;;;;;;;;;;;;23.61;59.92;100646.88;5185977;28;20345;-77
2022/06/21 05:24:44;;;;;;;;;;;;;;;25.46;56.91;100646.53;5185834;28;19921;-77
2022/06/21 05:27:26;;;;;;;;;;;;;;;25.27;55.93;100643.88;5194457;28;19912;-76
2022/06/21 05:30:03;;;;;;;;;;;;;;;25.26;56.94;100642.19;5192431;28;19920;-77
2022/06/21 05:32:39;;;;;;;;;;;;;;;25.81;56.16;100643.94;5197998;28;20693;-76
2022/06/21 05:35:12;;;;;;;;;;;;;;;26.37;55.78;100656.13;5192603;28;19912;-76
2022/06/21 05:37:48;;;;;;;;;;;;;;;25.43;56.12;100650.31;5199954;28;19971;-76
2022/06/21 05:40:30;;;;;;;;;;;;;;;24.79;58.33;100653.84;5198928;28;20302;-74
2022/06/21 05:43:01;;;;;;;;;;;;;;;23.16;61.22;100661.53;5201705;28;19917;-76
2022/06/21 05:45:33;;;;;;;;;;;;;;;22.64;62.85;100675.88;5197357;28;19920;-76
2022/06/21 05:48:09;;;;;;;;;;;;;;;22.25;63.35;100682.63;5192489;28;19945;-76
2022/06/21 05:50:40;;;;;;;;;;;;;;;20.42;69.12;100675.03;5199522;28;19919;-76
2022/06/21 05:53:12;;;;;;;;;;;;;;;20.23;70.08;100666.75;5199647;28;20051;-75
2022/06/21 05:55:44;;;;;;;;;;;;;;;20.46;69.99;100660.56;5192585;28;20465;-76
2022/06/21 05:58:21;;;;;;;;;;;;;;;20.17;70.81;100658.38;5193279;28;20087;-75
2022/06/21 06:00:51;;;;;;;;;;;;;;;20.20;71.58;100666.97;5192270;28;19913;-76
2022/06/21 06:03:32;;;;;;;;;;;;;;;19.61;74.15;100674.88;5202089;28;19940;-76
2022/06/21 06:06:05;;;;;;;;;;;;;;;20.40;71.13;100660.19;5202452;28;19913;-76
2022/06/21 06:08:38;;;;;;;;;;;;;;;19.95;71.82;100659.06;5202329;28;19913;-75
2022/06/21 06:11:12;;;;;;;;;;;;;;;19.91;72.45;100662.03;5202375;28;20371;-76
2022/06/21 06:13:43;;;;;;;;;;;;;;;20.83;69.87;100662.13;5199226;28;20313;-76
2022/06/21 06:16:26;;;;;;;;;;;;;;;21.27;69.49;100664.91;5202967;28;19913;-76
2022/06/21 06:19:00;;;;;;;;;;;;;;;20.46;68.66;100671.19;5202428;28;20007;-77
2022/06/21 06:21:39;;;;;;;;;;;;;;;20.85;68.20;100678.84;5202879;28;20072;-76
2022/06/21 06:24:19;;;;;;;;;;;;;;;20.93;68.99;100669.31;5198051;28;19917;-76
2022/06/21 06:26:54;;;;;;;;;;;;;;;20.96;69.44;100677.09;5192135;28;19914;-76
2022/06/21 06:29:36;;;;;;;;;;;;;;;20.19;71.10;100677.69;5193571;28;19913;-76
2022/06/21 06:32:27;;;;;;;;;;;;;;;20.83;69.57;100681.63;5180269;28;19963;-76
2022/06/21 06:34:57;;;;;;;;;;;;;;;21.37;67.83;100671.22;5200577;28;19913;-76
2022/06/21 06:37:38;;;;;;;;;;;;;;;21.40;67.64;100684.28;5201020;28;20374;-76
2022/06/21 06:40:18;;;;;;;;;;;;;;;20.54;70.05;100674.13;5202144;28;19913;-76
2022/06/21 06:42:53;;;;;;;;;;;;;;;21.26;68.71;100676.53;5178357;28;20196;-76
2022/06/21 06:45:28;;;;;;;;;;;;;;;21.82;65.99;100678.25;5202066;28;19919;-76
2022/06/21 06:48:03;;;;;;;;;;;;;;;20.87;68.27;100688.41;5192036;28;19913;-76
2022/06/21 06:50:36;;;;;;;;;;;;;;;20.37;69.93;100698.44;5195732;28;19917;-76
2022/06/21 06:53:10;;;;;;;;;;;;;;;21.55;69.82;100685.75;5197127;28;19913;-76
2022/06/21 06:55:40;;;;;;;;;;;;;;;21.54;67.35;100690.19;5187992;28;19917;-76
2022/06/21 06:58:10;;;;;;;;;;;;;;;21.34;68.67;100693.56;5193727;28;20193;-75
2022/06/21 07:00:43;;;;;;;;;;;;;;;19.92;72.44;100707.06;5191034;28;19913;-76
2022/06/21 07:03:17;;;;;;;;;;;;;;;21.00;69.35;100704.25;5202274;28;20585;-76
2022/06/21 07:06:04;;;;;;;;;;;;;;;21.93;67.77;100699.53;5183157;28;19968;-75
2022/06/21 07:08:34;;;;;;;;;;;;;;;20.96;69.68;100697.50;5201006;28;19923;-75
2022/06/21 07:11:24;;;;;;;;;;;;;;;21.44;68.15;100705.19;5202020;28;19999;-75
2022/06/21 07:13:54;;;;;;;;;;;;;;;21.94;66.43;100709.22;5197428;28;19958;-76
2022/06/21 07:16:25;;;;;;;;;;;;;;;22.05;67.31;100712.69;5201196;28;19913;-76
2022/06/21 07:18:57;;;;;;;;;;;;;;;21.93;67.31;100718.16;5201363;28;19913;-76
2022/06/21 07:21:28;;;;;;;;;;;;;;;20.32;70.21;100721.81;5201365;28;20387;-76
2022/06/21 07:23:59;;;;;;;;;;;;;;;20.28;71.92;100722.16;5201717;28;19924;-76
2022/06/21 07:26:31;;;;;;;;;;;;;;;20.63;70.12;100715.09;5190928;28;19924;-76
2022/06/21 07:29:07;;;;;;;;;;;;;;;20.61;70.67;100712.56;5193121;28;19913;-76
2022/06/21 07:31:45;;;;;;;;;;;;;;;20.75;69.64;100720.34;5193958;28;20234;-76
2022/06/21 07:34:18;;;;;;;;;;;;;;;20.29;71.01;100719.38;5180397;28;19979;-76
2022/06/21 07:36:55;;;;;;;;;;;;;;;20.92;72.00;100711.97;5200897;28;19913;-76
2022/06/21 07:39:34;;;;;;;;;;;;;;;22.55;66.59;100708.59;5201157;28;19928;-76
2022/06/21 07:42:06;;;;;;;;;;;;;;;22.92;63.35;100713.41;5201322;28;19919;-76
2022/06/21 07:44:41;;;;;;;;;;;;;;;21.52;66.55;100723.19;5201067;28;19917;-76
2022/06/21 07:47:24;;;;;;;;;;;;;;;21.72;66.41;100712.72;5196103;28;19917;-76
2022/06/21 07:49:58;;;;;;;;;;;;;;;22.88;63.61;100718.13;5200946;28;19913;-74
2022/06/21 07:52:31;;;;;;;;;;;;;;;23.40;62.07;100718.09;5183229;28;19913;-76
2022/06/21 07:55:34;;;;;;;;;;;;;;;23.00;63.54;100730.44;5197378;28;20545;-76
2022/06/21 07:58:10;;;;;;;;;;;;;;;22.31;63.42;100718.56;5147880;28;19913;-76
2022/06/21 08:06:41;;;;;;;;;;;;;;;23.18;63.35;100728.94;5201103;28;20424;-76
2022/06/21 08:09:23;;;;;;;;;;;;;;;22.67;62.58;100741.25;5200594;28;20063;-76
2022/06/21 08:12:00;;;;;;;;;;;;;;;21.35;66.66;100739.63;5200954;28;20440;-76
2022/06/21 08:14:31;;;;;;;;;;;;;;;23.86;60.60;100731.84;5201224;28;19944;-76
2022/06/21 08:17:08;;;;;;;;;;;;;;;23.37;60.51;100725.53;5200267;28;19913;-76
2022/06/21 08:19:54;;;;;;;;;;;;;;;23.94;61.06;100724.03;5200353;28;19982;-76
2022/06/21 08:22:30;;;;;;;;;;;;;;;23.55;62.43;100722.13;5196742;28;20265;-76
2022/06/21 08:25:10;;;;;;;;;;;;;;;24.79;58.58;100713.50;5196388;28;19921;-77
2022/06/21 08:27:47;;;;;;;;;;;;;;;23.66;58.33;100730.06;5196353;28;19913;-76
2022/06/21 08:30:17;;;;;;;;;;;;;;;22.45;61.20;100736.97;5186573;28;20267;-76
2022/06/21 08:32:51;;;;;;;;;;;;;;;23.38;59.99;100741.41;5198092;28;19924;-76
2022/06/21 08:35:28;;;;;;;;;;;;;;;24.96;57.29;100733.34;5200185;28;19924;-76
2022/06/21 08:38:02;;;;;;;;;;;;;;;25.50;55.69;100731.72;5201721;28;19931;-76
2022/06/21 08:40:48;;;;;;;;;;;;;;;25.40;56.67;100730.06;5200381;28;19943;-76
2022/06/21 08:43:34;;;;;;;;;;;;;;;23.36;58.77;100731.84;5194722;28;20162;-76
2022/06/21 08:46:31;;;;;;;;;;;;;;;22.04;60.88;100742.09;5200630;28;20211;-73
2022/06/21 08:49:13;;;;;;;;;;;;;;;23.53;59.77;100717.91;5178135;28;20310;-77
2022/06/21 08:51:58;;;;;;;;;;;;;;;24.04;58.11;100721.38;5186091;28;19928;-76
2022/06/21 08:54:34;;;;;;;;;;;;;;;24.41;57.55;100717.94;5198405;28;19999;-76
2022/06/21 08:57:15;;;;;;;;;;;;;;;25.47;55.81;100720.47;5198748;28;19913;-77
2022/06/21 08:59:58;;;;;;;;;;;;;;;24.73;56.04;100711.41;5177731;28;19913;-76
2022/06/21 09:02:55;;;;;;;;;;;;;;;24.20;59.15;100713.69;5201745;28;19921;-76
2022/06/21 09:05:35;;;;;;;;;;;;;;;25.00;55.57;100722.22;5173902;28;19912;-76
2022/06/21 09:08:08;;;;;;;;;;;;;;;26.53;53.14;100718.00;5201935;28;19919;-76
2022/06/21 09:10:57;;;;;;;;;;;;;;;25.96;52.21;100715.66;5202596;28;19913;-76
2022/06/21 09:13:33;;;;;;;;;;;;;;;23.95;56.33;100719.50;5200141;28;19913;-76
2022/06/21 09:16:12;;;;;;;;;;;;;;;24.22;55.80;100712.56;5192272;28;20019;-76
2022/06/21 09:19:01;;;;;;;;;;;;;;;25.40;54.63;100696.13;5191911;28;20374;-76
2022/06/21 09:21:32;;;;;;;;;;;;;;;24.37;55.67;100697.81;5186093;28;19913;-76
2022/06/21 09:24:09;;;;;;;;;;;;;;;23.95;57.28;100707.03;5202121;28;20340;-76
2022/06/21 09:26:44;;;;;;;;;;;;;;;25.85;54.48;100701.63;5202676;28;20378;-76
2022/06/21 09:29:20;;;;;;;;;;;;;;;25.08;55.35;100694.75;5192455;28;19913;-74
2022/06/21 09:31:50;;;;;;;;;;;;;;;25.78;53.49;100693.28;5204134;28;20398;-77
2022/06/21 09:34:33;;;;;;;;;;;;;;;24.79;54.79;100693.94;5203251;28;19920;-77
2022/06/21 09:37:08;;;;;;;;;;;;;;;25.47;54.51;100696.38;5202172;28;20279;-76
2022/06/21 09:39:45;;;;;;;;;;;;;;;25.72;54.60;100690.38;5203137;28;19932;-76
2022/06/21 09:42:20;;;;;;;;;;;;;;;25.61;55.72;100685.19;5196656;28;19924;-77
2022/06/21 09:45:14;;;;;;;;;;;;;;;26.15;54.50;100687.91;5203103;28;19913;-77
2022/06/21 09:47:50;;;;;;;;;;;;;;;25.72;55.52;100698.41;5199307;28;19913;-77
2022/06/21 09:50:34;;;;;;;;;;;;;;;26.07;56.26;100687.81;5203397;28;19935;-76
2022/06/21 09:53:04;;;;;;;;;;;;;;;26.08;55.81;100684.13;5203416;28;20366;-77
2022/06/21 09:55:41;;;;;;;;;;;;;;;27.77;52.61;100680.91;5194164;28;19951;-77
2022/06/21 09:58:14;;;;;;;;;;;;;;;26.48;53.12;100684.59;5191525;28;19913;-76
2022/06/21 10:00:51;;;;;;;;;;;;;;;25.84;54.14;100691.88;5196311;28;19913;-76
2022/06/21 10:03:25;;;;;;;;;;;;;;;26.01;56.09;100689.25;5202928;28;19957;-76
2022/06/21 10:05:59;;;;;;;;;;;;;;;25.65;55.39;100689.28;5203185;28;20008;-76
2022/06/21 10:08:53;;;;;;;;;;;;;;;26.73;51.15;100680.16;5202278;28;19917;-76
2022/06/21 10:11:49;;;;;;;;;;;;;;;26.72;52.56;100674.09;5198205;28;20307;-76
2022/06/21 10:14:38;;;;;;;;;;;;;;;26.22;52.91;100681.81;5172665;28;20323;-76
2022/06/21 10:17:38;;;;;;;;;;;;;;;24.23;55.14;100682.19;5183638;28;19920;-75
2022/06/21 10:20:16;;;;;;;;;;;;;;;24.04;55.70;100682.16;5184353;28;19913;-76
2022/06/21 10:22:46;;;;;;;;;;;;;;;23.93;55.80;100678.75;5188394;28;19979;-76
2022/06/21 10:25:19;;;;;;;;;;;;;;;23.45;56.62;100667.88;5201071;28;19913;-75
2022/06/21 10:28:01;;;;;;;;;;;;;;;23.36;54.89;100662.50;5201133;28;19956;-76
2022/06/21 10:30:46;;;;;;;;;;;;;;;22.90;54.92;100665.56;5201202;28;20398;-76
2022/06/21 10:33:17;;;;;;;;;;;;;;;23.36;54.47;100657.97;5181679;28;19960;-75
2022/06/21 10:35:50;;;;;;;;;;;;;;;23.22;56.18;100661.00;5202563;28;19944;-75
2022/06/21 10:38:20;;;;;;;;;;;;;;;23.38;55.99;100661.34;5201557;28;19920;-75
2022/06/21 10:41:02;;;;;;;;;;;;;;;22.39;57.15;100665.56;5202612;28;20374;-75
2022/06/21 10:43:36;;;;;;;;;;;;;;;23.64;56.37;100651.94;5202312;28;19921;-76
2022/06/21 10:46:10;;;;;;;;;;;;;;;22.73;56.83;100656.47;5202858;28;20011;-75
2022/06/21 10:48:46;;;;;;;;;;;;;;;23.50;56.87;100656.81;5198088;28;19913;-74
2022/06/21 10:51:16;;;;;;;;;;;;;;;23.42;57.29;100644.13;5175166;28;19963;-75
2022/06/21 10:53:47;;;;;;;;;;;;;;;22.42;58.04;100646.66;5198945;28;19956;-76
2022/06/21 10:59:26;;;;;;;;;;;;;;;23.27;60.84;100639.25;5169535;28;19917;-75
2022/06/21 11:02:03;;;;;;;;;;;;;;;23.20;60.46;100644.28;5198306;28;19948;-75
2022/06/21 11:04:39;;;;;;;;;;;;;;;22.73;61.14;100630.63;5184396;28;19920;-75
2022/06/21 11:07:28;;;;;;;;;;;;;;;23.07;59.24;100624.09;5201550;28;20367;-76
2022/06/21 11:10:03;;;;;;;;;;;;;;;22.82;60.30;100617.38;5198380;28;19913;-75
2022/06/21 11:12:54;;;;;;;;;;;;;;;23.31;59.45;100622.00;5201862;28;20370;-76
2022/06/21 11:15:27;;;;;;;;;;;;;;;23.24;58.05;100621.72;5201247;28;19912;-76
2022/06/21 11:18:16;;;;;;;;;;;;;;;23.39;58.12;100619.53;5183498;28;19920;-76
2022/06/21 11:20:46;;;;;;;;;;;;;;;23.52;62.05;100609.47;5193961;28;19959;-75
2022/06/21 11:23:18;;;;;;;;;;;;;;;23.31;60.54;100617.53;5201321;28;19917;-76
2022/06/21 11:26:00;;;;;;;;;;;;;;;23.24;59.76;100616.38;5200853;28;20003;-76
2022/06/21 11:28:39;;;;;;;;;;;;;;;23.38;59.52;100613.34;5197424;28;19929;-75
2022/06/21 11:31:09;;;;;;;;;;;;;;;22.69;56.48;100619.38;5201576;28;19994;-75
2022/06/21 11:33:51;;;;;;;;;;;;;;;22.69;58.06;100619.38;5201799;28;19956;-76
2022/06/21 11:36:25;;;;;;;;;;;;;;;22.61;59.42;100614.84;5196112;28;20731;-75
2022/06/21 11:39:14;;;;;;;;;;;;;;;22.95;59.58;100609.16;5200414;28;19913;-76
2022/06/21 11:42:05;;;;;;;;;;;;;;;23.07;58.30;100614.31;5176141;28;20745;-76
2022/06/21 11:44:38;;;;;;;;;;;;;;;23.27;59.20;100618.78;5200132;28;19947;-75
2022/06/21 11:47:21;;;;;;;;;;;;;;;23.61;58.85;100604.16;5191251;28;19912;-75
2022/06/21 11:49:57;;;;;;;;;;;;;;;22.97;58.38;100597.41;5190912;28;20294;-75
2022/06/21 11:52:41;;;;;;;;;;;;;;;22.49;56.67;100610.53;5199468;28;20535;-76
2022/06/21 11:55:25;;;;;;;;;;;;;;;23.13;57.46;100603.13;5190996;28;19927;-76
2022/06/21 11:57:56;;;;;;;;;;;;;;;23.22;55.20;100590.81;5196627;28;19917;-76
2022/06/21 12:00:43;;;;;;;;;;;;;;;23.29;55.50;100587.47;5198850;28;20065;-76
2022/06/21 12:03:30;;;;;;;;;;;;;;;23.14;56.10;100588.81;5197004;28;20325;-75
2022/06/21 12:06:05;;;;;;;;;;;;;;;23.09;54.69;100588.34;5182977;28;20326;-75
2022/06/21 12:08:52;;;;;;;;;;;;;;;23.35;55.30;100592.25;5200036;28;20003;-76
2022/06/21 12:11:33;;;;;;;;;;;;;;;23.12;52.75;100589.91;5198359;28;19913;-75
2022/06/21 12:14:13;;;;;;;;;;;;;;;23.07;52.77;100590.31;5200882;28;19917;-76
2022/06/21 12:16:49;;;;;;;;;;;;;;;23.11;50.59;100583.75;5190028;28;20390;-75
2022/06/21 12:19:21;;;;;;;;;;;;;;;23.10;52.40;100582.03;5200208;28;19913;-76
2022/06/21 12:21:56;;;;;;;;;;;;;;;22.95;49.65;100585.16;5200776;28;19920;-75
2022/06/21 12:24:28;;;;;;;;;;;;;;;22.73;49.54;100578.19;5200345;28;19964;-75
2022/06/21 12:26:58;;;;;;;;;;;;;;;22.90;52.78;100574.91;5200457;28;20023;-76
2022/06/21 12:29:28;;;;;;;;;;;;;;;22.77;53.74;100568.09;5196322;28;20039;-75
2022/06/21 12:32:00;;;;;;;;;;;;;;;22.21;54.28;100557.84;5201156;28;19959;-75
2022/06/21 12:34:39;;;;;;;;;;;;;;;21.86;54.60;100557.25;5204881;28;19956;-75
2022/06/21 12:37:33;;;;;;;;;;;;;;;21.75;57.06;100565.28;5204108;28;20169;-75
2022/06/21 12:40:12;;;;;;;;;;;;;;;22.34;56.47;100547.84;5202418;28;19917;-75
2022/06/21 12:42:54;;;;;;;;;;;;;;;23.05;57.63;100552.22;5196881;28;19923;-75
2022/06/21 12:45:44;;;;;;;;;;;;;;;22.55;51.77;100544.25;5203833;28;19913;-76
2022/06/21 12:48:23;;;;;;;;;;;;;;;22.72;53.32;100533.00;5204008;28;20406;-74
2022/06/21 12:51:04;;;;;;;;;;;;;;;22.80;52.79;100533.16;5204654;28;19942;-76
2022/06/21 12:53:47;;;;;;;;;;;;;;;22.99;56.45;100531.44;5209484;28;19917;-76
2022/06/21 12:56:36;;;;;;;;;;;;;;;22.84;52.17;100522.09;5179872;28;19917;-76
2022/06/21 12:59:07;;;;;;;;;;;;;;;23.05;53.20;100519.41;5200286;28;19959;-76
2022/06/21 13:01:56;;;;;;;;;;;;;;;23.23;51.36;100523.97;5204133;28;19920;-75
2022/06/21 13:04:38;;;;;;;;;;;;;;;23.32;50.30;100512.50;5200341;28;20259;-76
2022/06/21 13:07:19;;;;;;;;;;;;;;;23.11;50.30;100509.06;5202351;28;19917;-76
2022/06/21 13:10:02;;;;;;;;;;;;;;;23.07;49.62;100506.78;5198154;28;19913;-76
2022/06/21 13:12:39;;;;;;;;;;;;;;;23.03;49.29;100502.69;5204057;28;19913;-76
2022/06/21 13:15:12;;;;;;;;;;;;;;;22.95;50.95;100499.84;5204036;28;19913;-76
2022/06/21 13:18:01;;;;;;;;;;;;;;;22.71;50.62;100494.81;5198340;28;19913;-75
2022/06/21 13:20:49;;;;;;;;;;;;;;;22.90;49.39;100500.28;5203959;28;19921;-76
2022/06/21 13:23:28;;;;;;;;;;;;;;;22.82;49.61;100496.59;5200589;28;19917;-76
2022/06/21 13:26:10;;;;;;;;;;;;;;;22.83;53.03;100503.59;5203877;28;20382;-76
2022/06/21 13:28:51;;;;;;;;;;;;;;;22.76;51.51;100505.94;5191657;28;19933;-76
2022/06/21 13:31:40;;;;;;;;;;;;;;;22.54;48.90;100512.41;5203696;28;20018;-76